createdAt,value
2022-11-20T00:01:33.830Z,87.70
2022-11-20T00:04:02.121Z,85.27
2022-11-20T00:06:30.200Z,81.67
2022-11-20T00:09:01.396Z,78.90
2022-11-20T00:11:31.132Z,85.57
2022-11-20T00:14:01.419Z,77.60
2022-11-20T00:16:32.568Z,79.07
2022-11-20T00:19:00.223Z,88.33
2022-11-20T00:21:29.862Z,85.43
2022-11-20T00:23:58.540Z,76.40
2022-11-20T00:26:28.246Z,87.43
2022-11-20T00:28:59.383Z,95.33
2022-11-20T00:31:27.626Z,97.60
2022-11-20T00:33:55.185Z,91.83
2022-11-20T00:36:26.356Z,100.03
2022-11-20T00:38:56.801Z,96.70
2022-11-20T00:41:25.603Z,88.07
2022-11-20T00:43:54.905Z,80.97
2022-11-20T00:46:26.636Z,102.73
2022-11-20T00:48:54.325Z,97.70
2022-11-20T00:51:26.353Z,97.77
2022-11-20T00:53:58.052Z,106.43
2022-11-20T00:56:25.352Z,106.53
2022-11-20T00:58:52.848Z,106.73
2022-11-20T01:01:26.388Z,102.43
2022-11-20T01:03:56.928Z,113.03
2022-11-20T01:06:30.532Z,120.67
2022-11-20T01:09:02.558Z,117.57
2022-11-20T01:11:33.634Z,104.87
2022-11-20T01:14:03.821Z,112.13
2022-11-20T01:16:36.663Z,116.53
2022-11-20T01:19:08.549Z,108.17
2022-11-20T01:21:39.710Z,112.67
2022-11-20T01:24:12.299Z,110.70
2022-11-20T01:26:42.210Z,101.00
2022-11-20T01:29:29.926Z,112.20
2022-11-20T01:31:57.161Z,110.13
2022-11-20T01:34:24.823Z,135.17
2022-11-20T01:36:53.951Z,127.43
2022-11-20T01:39:27.423Z,124.10
2022-11-20T01:42:15.265Z,117.77
2022-11-20T01:44:58.940Z,124.10
2022-11-20T01:47:40.729Z,118.07
2022-11-20T01:50:29.970Z,113.43
2022-11-20T01:53:09.593Z,110.97
2022-11-20T01:55:44.926Z,129.43
2022-11-20T01:58:13.950Z,125.40
2022-11-20T02:00:42.173Z,122.07
2022-11-20T02:03:16.686Z,133.20
2022-11-20T02:06:00.416Z,122.93
2022-11-20T02:08:29.997Z,121.30
2022-11-20T02:10:57.739Z,116.43
2022-11-20T02:13:57.522Z,130.73
2022-11-20T02:16:40.350Z,138.67
2022-11-20T02:19:24.578Z,129.43
2022-11-20T02:22:38.324Z,138.70
2022-11-20T02:25:09.036Z,127.70
2022-11-20T02:27:37.381Z,116.60
2022-11-20T02:30:09.014Z,112.83
2022-11-20T02:32:39.260Z,126.70
2022-11-20T02:35:21.456Z,114.20
2022-11-20T02:37:53.937Z,109.73
2022-11-20T02:40:21.240Z,114.63
2022-11-20T02:42:49.124Z,119.43
2022-11-20T02:45:16.284Z,117.17
2022-11-20T02:47:43.766Z,119.97
2022-11-20T02:50:11.505Z,131.07
2022-11-20T02:52:39.042Z,121.67
2022-11-20T02:55:07.118Z,127.13
2022-11-20T02:57:34.774Z,134.23
2022-11-20T03:00:02.396Z,131.50
2022-11-20T03:02:34.010Z,128.63
2022-11-20T03:05:01.268Z,114.30
2022-11-20T03:07:28.886Z,117.33
2022-11-20T03:09:56.213Z,114.57
2022-11-20T03:12:23.664Z,110.10
2022-11-20T03:14:53.299Z,110.40
2022-11-20T03:17:21.104Z,112.60
2022-11-20T03:19:48.322Z,117.27
2022-11-20T03:22:16.055Z,105.23
2022-11-20T03:24:43.304Z,120.10
2022-11-20T03:27:10.992Z,113.50
2022-11-20T03:29:38.142Z,117.10
2022-11-20T03:32:06.357Z,108.30
2022-11-20T03:34:33.569Z,116.73
2022-11-20T03:37:01.072Z,113.27
2022-11-20T03:39:28.308Z,109.47
2022-11-20T03:41:55.836Z,101.03
2022-11-20T03:44:23.403Z,88.93
2022-11-20T03:46:50.837Z,106.53
2022-11-20T03:49:18.066Z,93.73
2022-11-20T03:51:45.520Z,98.40
2022-11-20T03:54:12.681Z,105.73
2022-11-20T03:56:40.618Z,98.40
2022-11-20T03:59:08.041Z,105.73
2022-11-20T04:01:38.643Z,96.87
2022-11-20T04:04:06.954Z,102.67
2022-11-20T04:06:39.140Z,117.90
2022-11-20T04:09:07.320Z,122.50
2022-11-20T04:11:40.368Z,116.93
2022-11-20T04:14:14.426Z,109.50
2022-11-20T04:16:42.417Z,110.13
2022-11-20T04:19:16.035Z,121.37
2022-11-20T04:21:45.086Z,116.53
2022-11-20T04:24:12.603Z,98.63
2022-11-20T04:26:41.395Z,104.30
2022-11-20T04:29:12.873Z,93.60
2022-11-20T04:31:40.481Z,97.47
2022-11-20T04:34:08.830Z,106.33
2022-11-20T04:36:36.386Z,112.43
2022-11-20T04:39:07.271Z,114.93
2022-11-20T04:41:37.682Z,103.43
2022-11-20T04:44:07.289Z,102.37
2022-11-20T04:46:39.418Z,93.27
2022-11-20T04:49:07.665Z,93.30
2022-11-20T04:51:35.822Z,96.67
2022-11-20T04:54:03.318Z,109.30
2022-11-20T04:56:30.982Z,96.93
2022-11-20T04:59:02.802Z,95.13
2022-11-20T05:01:31.156Z,107.40
2022-11-20T05:03:58.418Z,94.03
2022-11-20T05:06:26.734Z,96.07
2022-11-20T05:08:53.884Z,88.27
2022-11-20T05:11:22.696Z,99.83
2022-11-20T05:13:52.347Z,91.57
2022-11-20T05:16:25.346Z,95.23
2022-11-20T05:18:55.877Z,93.97
2022-11-20T05:21:24.047Z,100.33
2022-11-20T05:23:51.279Z,107.07
2022-11-20T05:26:23.646Z,124.70
2022-11-20T05:28:52.817Z,118.10
2022-11-20T05:31:27.715Z,132.17
2022-11-20T05:33:58.229Z,124.13
2022-11-20T05:36:26.150Z,117.57
2022-11-20T05:38:58.111Z,111.40
2022-11-20T05:41:29.325Z,123.50
2022-11-20T05:43:58.952Z,112.43
2022-11-20T05:46:29.022Z,115.60
2022-11-20T05:48:58.814Z,116.93
2022-11-20T05:51:27.197Z,112.77
2022-11-20T05:53:54.617Z,120.03
2022-11-20T05:56:23.477Z,105.77
2022-11-20T05:58:51.015Z,99.00
2022-11-20T06:01:25.857Z,108.30
2022-11-20T06:03:55.281Z,100.17
2022-11-20T06:06:23.894Z,108.43
2022-11-20T06:08:51.287Z,113.00
2022-11-20T06:11:19.690Z,105.47
2022-11-20T06:13:47.932Z,99.53
2022-11-20T06:16:19.919Z,106.17
2022-11-20T06:18:48.074Z,97.43
2022-11-20T06:21:22.405Z,105.07
2022-11-20T06:23:51.547Z,105.77
2022-11-20T06:26:25.979Z,112.27
2022-11-20T06:28:54.172Z,108.33
2022-11-20T06:31:25.761Z,105.30
2022-11-20T06:33:53.999Z,102.00
2022-11-20T06:36:23.986Z,105.23
2022-11-20T06:38:51.852Z,117.50
2022-11-20T06:41:23.796Z,115.53
2022-11-20T06:43:51.434Z,104.60
2022-11-20T06:46:21.546Z,105.83
2022-11-20T06:48:50.238Z,113.87
2022-11-20T06:51:18.059Z,98.83
2022-11-20T06:53:45.419Z,114.50
2022-11-20T06:56:12.896Z,116.77
2022-11-20T06:58:40.267Z,103.33
2022-11-20T07:01:12.361Z,113.63
2022-11-20T07:03:41.233Z,112.57
2022-11-20T07:06:10.014Z,108.10
2022-11-20T07:08:37.702Z,103.80
2022-11-20T07:11:08.482Z,93.63
2022-11-20T07:13:36.021Z,109.53
2022-11-20T07:16:07.372Z,110.23
2022-11-20T07:18:34.833Z,110.53
2022-11-20T07:21:11.676Z,120.53
2022-11-20T07:23:39.376Z,109.73
2022-11-20T07:26:10.084Z,105.23
2022-11-20T07:28:38.558Z,111.03
2022-11-20T07:31:08.473Z,107.63
2022-11-20T07:33:35.708Z,120.57
2022-11-20T07:36:03.838Z,123.47
2022-11-20T07:38:31.282Z,132.23
2022-11-20T07:40:59.309Z,123.63
2022-11-20T07:43:26.829Z,120.00
2022-11-20T07:45:57.930Z,131.47
2022-11-20T07:48:26.497Z,131.67
2022-11-20T07:50:58.131Z,131.57
2022-11-20T07:53:25.962Z,136.60
2022-11-20T07:55:53.631Z,122.87
2022-11-20T07:58:22.617Z,127.67
2022-11-20T08:00:50.449Z,125.83
2022-11-20T08:03:21.833Z,134.57
2022-11-20T08:05:52.664Z,124.83
2022-11-20T08:08:19.918Z,116.57
2022-11-20T08:10:47.353Z,111.83
2022-11-20T08:13:33.150Z,111.77
2022-11-20T08:16:00.613Z,111.87
2022-11-20T08:18:32.458Z,109.37
2022-11-20T08:21:05.044Z,106.17
2022-11-20T08:23:32.578Z,102.20
2022-11-20T08:26:00.100Z,108.43
2022-11-20T08:28:27.302Z,119.80
2022-11-20T08:31:03.196Z,116.67
2022-11-20T08:33:31.167Z,119.07
2022-11-20T08:36:04.442Z,114.67
2022-11-20T08:38:33.150Z,121.43
2022-11-20T08:41:22.513Z,116.50
2022-11-20T08:43:55.497Z,117.87
2022-11-20T08:46:25.962Z,109.60
2022-11-20T08:48:53.885Z,110.77
2022-11-20T08:51:21.884Z,120.17
2022-11-20T08:53:52.031Z,122.50
2022-11-20T08:56:19.737Z,109.37
2022-11-20T08:59:18.003Z,108.03
2022-11-20T09:01:34.573Z,106.90
2022-11-20T09:04:01.775Z,109.33
2022-11-20T09:06:29.396Z,109.57
2022-11-20T09:09:00.767Z,109.23
2022-11-20T09:11:31.159Z,109.07
2022-11-20T09:13:58.544Z,96.28
2022-11-20T09:16:26.129Z,102.33
2022-11-20T09:19:07.209Z,98.50
2022-11-20T09:21:41.005Z,94.57
2022-11-20T09:24:08.469Z,94.90
2022-11-20T09:26:36.850Z,95.17
2022-11-20T09:29:04.111Z,100.47
2022-11-20T09:31:31.607Z,97.63
2022-11-20T09:33:58.865Z,98.32
2022-11-20T09:36:26.432Z,95.83
2022-11-20T09:38:53.803Z,92.10
2022-11-20T09:41:42.369Z,94.20
2022-11-20T09:44:37.009Z,96.67
2022-11-20T09:47:34.979Z,87.53
2022-11-20T09:51:16.065Z,87.80
2022-11-20T09:54:19.580Z,91.35
2022-11-20T09:57:00.538Z,95.88
2022-11-20T09:59:43.637Z,95.80
2022-11-20T10:02:25.612Z,91.10
2022-11-20T10:05:19.265Z,104.32
2022-11-20T10:08:22.728Z,101.80
2022-11-20T10:11:24.858Z,98.18
2022-11-20T10:14:30.311Z,102.63
2022-11-20T10:17:11.583Z,94.53
2022-11-20T10:20:21.066Z,96.17
2022-11-20T10:23:25.773Z,88.70
2022-11-20T10:26:13.906Z,88.00
2022-11-20T10:29:00.592Z,79.97
2022-11-20T10:31:34.530Z,86.32
2022-11-20T10:34:22.770Z,82.68
2022-11-20T10:37:06.926Z,76.63
2022-11-20T10:40:01.914Z,78.85
2022-11-20T10:42:58.531Z,89.20
2022-11-20T10:45:26.149Z,80.80
2022-11-20T10:48:13.310Z,76.70
2022-11-20T10:50:56.069Z,71.45
2022-11-20T10:53:56.926Z,79.93
2022-11-20T10:56:52.223Z,76.82
2022-11-20T10:59:32.363Z,77.70
2022-11-20T11:04:48.639Z,80.55
2022-11-20T11:07:31.726Z,75.25
2022-11-20T11:09:59.125Z,73.60
2022-11-20T11:12:30.239Z,68.57
2022-11-20T11:14:58.819Z,66.15
2022-11-20T11:17:30.651Z,60.78
2022-11-20T11:20:21.755Z,63.15
2022-11-20T11:22:59.304Z,59.15
2022-11-20T11:25:34.695Z,63.10
2022-11-20T11:28:06.253Z,61.78
2022-11-20T11:30:45.707Z,63.33
2022-11-20T11:33:31.828Z,62.58
2022-11-20T11:36:17.022Z,62.55
2022-11-20T11:38:45.395Z,70.70
2022-11-20T11:41:29.058Z,67.03
2022-11-20T11:44:37.064Z,67.20
2022-11-20T11:47:10.915Z,71.90
2022-11-20T11:49:38.601Z,73.28
2022-11-20T11:52:23.661Z,74.93
2022-11-20T11:55:07.087Z,72.93
2022-11-20T11:58:01.860Z,67.88
2022-11-20T12:00:29.813Z,72.15
2022-11-20T12:03:22.715Z,73.30
2022-11-20T12:06:02.785Z,72.55
2022-11-20T12:08:45.155Z,75.75
2022-11-20T12:11:24.258Z,72.40
2022-11-20T12:13:59.530Z,72.95
2022-11-20T12:16:27.096Z,71.07
2022-11-20T12:18:54.835Z,68.13
2022-11-20T12:21:25.545Z,72.82
2022-11-20T12:24:22.698Z,74.82
2022-11-20T12:27:54.303Z,65.93
2022-11-20T12:30:24.095Z,68.55
2022-11-20T12:33:27.067Z,69.55
2022-11-20T12:36:27.212Z,61.75
2022-11-20T12:39:12.916Z,58.80
2022-11-20T12:42:21.493Z,63.30
2022-11-20T12:45:45.210Z,60.38
2022-11-20T12:48:31.035Z,59.60
2022-11-20T12:51:33.031Z,55.50
2022-11-20T12:54:35.545Z,58.83
2022-11-20T12:57:22.916Z,61.88
2022-11-20T13:00:18.166Z,62.75
2022-11-20T13:03:46.768Z,57.53
2022-11-20T13:06:19.984Z,59.38
2022-11-20T13:08:57.809Z,56.85
2022-11-20T13:11:42.844Z,60.08
2022-11-20T13:14:28.011Z,59.33
2022-11-20T13:17:29.755Z,61.53
2022-11-20T13:20:01.822Z,57.35
2022-11-20T13:22:52.834Z,63.15
2022-11-20T13:25:39.140Z,63.30
2022-11-20T13:28:31.216Z,59.63
2022-11-20T13:31:00.133Z,64.63
2022-11-20T13:33:38.550Z,63.05
2022-11-20T13:36:24.173Z,71.05
2022-11-20T13:38:57.420Z,68.25
2022-11-20T13:41:36.524Z,71.00
2022-11-20T13:44:11.365Z,77.35
2022-11-20T13:46:45.648Z,79.63
2022-11-20T13:49:45.852Z,75.55
2022-11-20T13:52:51.959Z,84.45
2022-11-20T13:55:55.548Z,75.03
2022-11-20T13:58:45.093Z,95.43
2022-11-20T14:01:24.098Z,83.95
2022-11-20T14:04:09.361Z,98.47
2022-11-20T14:06:47.687Z,92.18
2022-11-20T14:09:27.743Z,90.30
2022-11-20T14:11:55.095Z,82.25
2022-11-20T14:14:26.994Z,81.07
2022-11-20T14:17:21.590Z,81.22
2022-11-20T14:19:52.288Z,81.78
2022-11-20T14:22:28.906Z,84.55
2022-11-20T14:25:28.236Z,82.15
2022-11-20T14:28:04.120Z,95.03
2022-11-20T14:30:47.661Z,89.70
2022-11-20T14:33:16.358Z,97.18
2022-11-20T14:35:55.486Z,93.47
2022-11-20T14:38:30.344Z,92.25
2022-11-20T14:41:18.965Z,94.43
2022-11-20T14:43:59.822Z,92.43
2022-11-20T14:46:28.791Z,84.93
2022-11-20T14:49:01.337Z,71.70
2022-11-20T14:51:44.016Z,87.30
2022-11-20T14:54:26.520Z,80.68
2022-11-20T14:56:59.853Z,85.40
2022-11-20T14:59:33.305Z,87.60
2022-11-20T15:02:11.724Z,93.78
2022-11-20T15:05:00.340Z,82.13
2022-11-20T15:07:38.572Z,94.72
2022-11-20T15:10:32.665Z,88.35
2022-11-20T15:13:13.040Z,86.32
2022-11-20T15:15:53.528Z,90.65
2022-11-20T15:18:33.647Z,95.70
2022-11-20T15:21:07.299Z,91.40
2022-11-20T15:23:35.635Z,106.07
2022-11-20T15:26:02.913Z,104.53
2022-11-20T15:28:51.312Z,108.82
2022-11-20T15:31:24.480Z,111.50
2022-11-20T15:33:52.346Z,112.15
2022-11-20T15:36:19.615Z,105.15
2022-11-20T15:38:47.594Z,119.25
2022-11-20T15:41:17.258Z,109.53
2022-11-20T15:43:44.970Z,116.78
2022-11-20T15:46:22.668Z,118.85
2022-11-20T15:48:56.308Z,119.10
2022-11-20T15:51:38.050Z,119.95
2022-11-20T15:54:22.490Z,126.30
2022-11-20T15:56:53.483Z,128.63
2022-11-20T15:59:21.577Z,128.43
2022-11-20T16:01:48.871Z,128.48
2022-11-20T16:04:19.370Z,124.30
2022-11-20T16:06:46.719Z,125.07
2022-11-20T16:09:14.312Z,127.85
2022-11-20T16:11:41.606Z,119.25
2022-11-20T16:14:30.426Z,121.53
2022-11-20T16:16:57.617Z,117.88
2022-11-20T16:19:25.085Z,121.85
2022-11-20T16:21:52.441Z,122.10
2022-11-20T16:24:20.557Z,120.07
2022-11-20T16:26:48.035Z,124.07
2022-11-20T16:29:16.033Z,119.85
2022-11-20T16:31:43.254Z,125.55
2022-11-20T16:34:12.509Z,129.88
2022-11-20T16:36:45.889Z,119.47
2022-11-20T16:39:19.036Z,125.95
2022-11-20T16:41:49.373Z,130.15
2022-11-20T16:44:17.076Z,110.72
2022-11-20T16:46:46.246Z,113.35
2022-11-20T16:49:15.333Z,110.15
2022-11-20T16:51:43.252Z,113.00
2022-11-20T16:54:13.950Z,111.22
2022-11-20T16:56:43.884Z,110.32
2022-11-20T16:59:11.696Z,107.28
2022-11-20T17:01:40.561Z,108.90
2022-11-20T17:04:08.329Z,110.73
2022-11-20T17:06:40.452Z,102.03
2022-11-20T17:09:11.183Z,105.35
2022-11-20T17:11:38.798Z,107.45
2022-11-20T17:14:09.907Z,108.78
2022-11-20T17:16:38.396Z,96.50
2022-11-20T17:19:06.467Z,99.72
2022-11-20T17:21:39.419Z,92.72
2022-11-20T17:24:13.255Z,97.18
2022-11-20T17:26:43.294Z,94.68
2022-11-20T17:29:17.499Z,95.07
2022-11-20T17:31:45.539Z,89.93
2022-11-20T17:34:15.808Z,91.63
2022-11-20T17:36:47.159Z,86.83
2022-11-20T17:39:17.080Z,89.37
2022-11-20T17:41:45.129Z,88.65
2022-11-20T17:44:13.549Z,91.60
2022-11-20T17:46:41.253Z,86.03
2022-11-20T17:49:08.893Z,83.80
2022-11-20T17:51:36.246Z,80.43
2022-11-20T17:54:09.511Z,85.10
2022-11-20T17:56:55.624Z,82.97
2022-11-20T17:59:23.420Z,87.07
2022-11-20T18:01:50.795Z,87.60
2022-11-20T18:04:18.608Z,85.00
2022-11-20T18:06:46.335Z,87.30
2022-11-20T18:09:13.958Z,85.27
2022-11-20T18:11:43.060Z,88.23
2022-11-20T18:14:28.950Z,83.20
2022-11-20T18:17:09.548Z,86.15
2022-11-20T18:19:51.612Z,93.97
2022-11-20T18:22:23.513Z,87.13
2022-11-20T18:24:50.983Z,91.73
2022-11-20T18:27:21.930Z,96.00
2022-11-20T18:29:52.101Z,93.53
2022-11-20T18:32:21.978Z,88.53
2022-11-20T18:34:51.482Z,88.53
2022-11-20T18:37:19.691Z,90.20
2022-11-20T18:39:47.390Z,89.30
2022-11-20T18:42:35.570Z,89.67
2022-11-20T18:45:05.148Z,82.77
2022-11-20T18:47:37.630Z,95.43
2022-11-20T18:50:08.668Z,88.10
2022-11-20T18:52:44.641Z,94.47
2022-11-20T18:55:12.968Z,94.53
2022-11-20T18:57:40.351Z,94.83
2022-11-20T19:00:09.916Z,95.27
2022-11-20T19:02:42.222Z,93.77
2022-11-20T19:05:15.227Z,92.07
2022-11-20T19:07:43.383Z,82.93
2022-11-20T19:10:11.276Z,84.33
2022-11-20T19:12:38.944Z,74.53
2022-11-20T19:15:07.221Z,76.60
2022-11-20T19:17:34.748Z,84.03
2022-11-20T19:20:02.323Z,75.90
2022-11-20T19:22:29.767Z,75.67
2022-11-20T19:24:57.341Z,71.50
2022-11-20T19:27:24.567Z,73.30
2022-11-20T19:29:52.259Z,79.38
2022-11-20T19:32:19.806Z,74.57
2022-11-20T19:34:47.445Z,78.75
2022-11-20T19:37:14.896Z,77.67
2022-11-20T19:39:42.483Z,82.63
2022-11-20T19:42:09.763Z,85.43
2022-11-20T19:44:37.389Z,89.07
2022-11-20T19:47:08.909Z,83.50
2022-11-20T19:49:41.877Z,89.87
2022-11-20T19:52:09.493Z,88.33
2022-11-20T19:54:37.184Z,89.47
2022-11-20T19:57:04.400Z,91.93
2022-11-20T19:59:32.071Z,89.17
2022-11-20T20:01:59.537Z,82.32
2022-11-20T20:04:27.611Z,82.93
2022-11-20T20:06:55.099Z,79.43
2022-11-20T20:09:24.015Z,81.68
2022-11-20T20:11:51.411Z,80.40
2022-11-20T20:14:19.318Z,81.93
2022-11-20T20:16:46.750Z,90.23
2022-11-20T20:19:16.555Z,93.10
2022-11-20T20:21:44.490Z,92.53
2022-11-20T20:24:12.610Z,86.70
2022-11-20T20:26:40.202Z,87.50
2022-11-20T20:29:08.227Z,90.57
2022-11-20T20:31:36.208Z,83.93
2022-11-20T20:34:05.529Z,81.93
2022-11-20T20:36:33.330Z,79.03
2022-11-20T20:39:02.833Z,77.97
2022-11-20T20:41:30.657Z,70.43
2022-11-20T20:44:16.731Z,74.17
2022-11-20T20:46:43.977Z,66.43
2022-11-20T20:49:11.559Z,73.07
2022-11-20T20:51:38.798Z,75.10
2022-11-20T20:54:06.550Z,75.60
2022-11-20T20:56:33.958Z,65.03
2022-11-20T20:59:01.709Z,72.45
2022-11-20T21:01:29.724Z,70.57
2022-11-20T21:03:57.811Z,67.65
2022-11-20T21:06:25.796Z,68.55
2022-11-20T21:08:53.735Z,57.90
2022-11-20T21:11:21.661Z,54.45
2022-11-20T21:13:49.886Z,69.87
2022-11-20T21:16:20.622Z,71.18
2022-11-20T21:18:48.839Z,74.60
2022-11-20T21:21:36.395Z,66.00
2022-11-20T21:24:04.468Z,72.43
2022-11-20T21:26:31.821Z,67.40
2022-11-20T21:28:59.530Z,68.75
2022-11-20T21:31:28.798Z,69.38
2022-11-20T21:33:57.426Z,78.47
2022-11-20T21:36:28.841Z,74.57
2022-11-20T21:38:59.519Z,77.55
2022-11-20T21:41:30.284Z,78.37
2022-11-20T21:46:47.826Z,75.30
2022-11-20T21:49:16.968Z,77.57
2022-11-20T21:51:44.234Z,78.28
2022-11-20T21:54:11.864Z,78.03
2022-11-20T21:56:39.368Z,68.15
2022-11-20T21:59:06.856Z,76.53
2022-11-20T22:01:34.889Z,74.20
2022-11-20T22:04:03.246Z,69.32
2022-11-20T22:06:33.662Z,74.20
2022-11-20T22:09:02.833Z,71.07
2022-11-20T22:11:30.500Z,75.95
2022-11-20T22:14:16.966Z,77.05
2022-11-20T22:16:44.180Z,71.85
2022-11-20T22:19:12.139Z,68.63
2022-11-20T22:21:40.693Z,76.20
2022-11-20T22:24:12.610Z,75.15
2022-11-20T22:26:40.825Z,82.80
2022-11-20T22:29:14.844Z,74.68
2022-11-20T22:31:42.503Z,72.60
2022-11-20T22:34:13.107Z,67.72
2022-11-20T22:36:41.271Z,67.80
2022-11-20T22:39:09.201Z,63.15
2022-11-20T22:41:36.403Z,67.07
2022-11-20T22:44:08.801Z,62.92
2022-11-20T22:46:38.491Z,68.40
2022-11-20T22:49:11.025Z,67.53
2022-11-20T22:51:41.362Z,68.22
2022-11-20T22:54:12.348Z,68.18
2022-11-20T22:56:40.658Z,61.65
2022-11-20T22:59:08.249Z,68.57
2022-11-20T23:01:37.324Z,61.40
2022-11-20T23:04:10.234Z,61.90
2022-11-20T23:06:37.628Z,64.77
2022-11-20T23:09:06.657Z,61.55
2022-11-20T23:11:35.339Z,66.68
2022-11-20T23:14:12.775Z,66.40
2022-11-20T23:16:40.459Z,62.93
2022-11-20T23:19:11.760Z,60.28
2022-11-20T23:21:41.539Z,66.07
2022-11-20T23:24:10.161Z,65.05
2022-11-20T23:26:40.668Z,62.83
2022-11-20T23:29:08.849Z,61.60
2022-11-20T23:31:36.657Z,70.60
2022-11-20T23:34:04.863Z,67.90
2022-11-20T23:36:32.454Z,65.50
2022-11-20T23:38:59.948Z,61.33
2022-11-20T23:41:27.280Z,64.55
2022-11-20T23:43:55.151Z,65.43
2022-11-20T23:46:22.699Z,69.88
2022-11-20T23:48:50.135Z,63.87
2022-11-20T23:51:18.107Z,62.55
2022-11-20T23:53:45.822Z,60.63
2022-11-20T23:56:16.187Z,63.77
2022-11-20T23:58:43.966Z,65.72
